sensor_id;sensor_type;location;lat;lon;timestamp;temperature;humidity
1329;DHT22;658;48.820;9.354;2022-10-01T00:03:26;22.50;48.10
1329;DHT22;658;48.820;9.354;2022-10-01T00:07:27;22.50;48.20
1329;DHT22;658;48.820;9.354;2022-10-01T00:11:28;22.40;48.80
1329;DHT22;658;48.820;9.354;2022-10-01T00:15:29;22.40;48.20
1329;DHT22;658;48.820;9.354;2022-10-01T00:19:30;22.40;48.30
1329;DHT22;658;48.820;9.354;2022-10-01T00:23:30;22.30;48.30
1329;DHT22;658;48.820;9.354;2022-10-01T00:27:31;22.30;48.30
1329;DHT22;658;48.820;9.354;2022-10-01T00:31:32;22.30;48.40
1329;DHT22;658;48.820;9.354;2022-10-01T00:35:33;22.30;48.40
1329;DHT22;658;48.820;9.354;2022-10-01T00:39:33;22.30;48.40
1329;DHT22;658;48.820;9.354;2022-10-01T00:43:37;22.20;48.50
1329;DHT22;658;48.820;9.354;2022-10-01T00:51:47;22.20;48.60
1329;DHT22;658;48.820;9.354;2022-10-01T00:55:52;22.10;48.50
1329;DHT22;658;48.820;9.354;2022-10-01T00:59:55;22.10;48.60
1329;DHT22;658;48.820;9.354;2022-10-01T01:03:59;22.10;48.60
1329;DHT22;658;48.820;9.354;2022-10-01T01:08:00;22.10;48.60
1329;DHT22;658;48.820;9.354;2022-10-01T01:16:27;22.10;48.60
1329;DHT22;658;48.820;9.354;2022-10-01T01:25:16;22.00;48.60
1329;DHT22;658;48.820;9.354;2022-10-01T01:29:49;22.00;48.60
1329;DHT22;658;48.820;9.354;2022-10-01T01:33:48;22.00;48.60
1329;DHT22;658;48.820;9.354;2022-10-01T01:37:54;22.00;48.60
1329;DHT22;658;48.820;9.354;2022-10-01T01:42:00;21.90;48.60
1329;DHT22;658;48.820;9.354;2022-10-01T01:46:05;21.90;48.70
1329;DHT22;658;48.820;9.354;2022-10-01T01:50:06;21.90;48.70
1329;DHT22;658;48.820;9.354;2022-10-01T01:54:08;21.80;48.70
1329;DHT22;658;48.820;9.354;2022-10-01T01:58:08;21.90;48.80
1329;DHT22;658;48.820;9.354;2022-10-01T02:02:16;21.80;48.70
1329;DHT22;658;48.820;9.354;2022-10-01T02:06:41;21.80;48.80
1329;DHT22;658;48.820;9.354;2022-10-01T02:23:24;21.80;48.80
1329;DHT22;658;48.820;9.354;2022-10-01T02:31:31;21.70;48.80
1329;DHT22;658;48.820;9.354;2022-10-01T02:35:34;21.70;48.80
1329;DHT22;658;48.820;9.354;2022-10-01T02:39:38;21.70;48.80
1329;DHT22;658;48.820;9.354;2022-10-01T02:44:02;21.70;48.80
1329;DHT22;658;48.820;9.354;2022-10-01T02:48:07;21.70;48.80
1329;DHT22;658;48.820;9.354;2022-10-01T02:52:33;21.70;48.90
1329;DHT22;658;48.820;9.354;2022-10-01T02:56:35;21.70;48.90
1329;DHT22;658;48.820;9.354;2022-10-01T03:00:54;21.70;48.90
1329;DHT22;658;48.820;9.354;2022-10-01T03:04:55;21.60;48.80
1329;DHT22;658;48.820;9.354;2022-10-01T03:08:56;21.60;48.90
1329;DHT22;658;48.820;9.354;2022-10-01T03:12:59;21.60;48.90
1329;DHT22;658;48.820;9.354;2022-10-01T03:17:01;21.60;48.90
1329;DHT22;658;48.820;9.354;2022-10-01T03:21:01;21.50;48.80
1329;DHT22;658;48.820;9.354;2022-10-01T03:25:02;21.60;48.90
1329;DHT22;658;48.820;9.354;2022-10-01T03:29:03;21.50;48.90
1329;DHT22;658;48.820;9.354;2022-10-01T03:33:04;21.50;48.90
1329;DHT22;658;48.820;9.354;2022-10-01T03:37:05;21.50;49.00
1329;DHT22;658;48.820;9.354;2022-10-01T03:41:05;21.50;48.90
1329;DHT22;658;48.820;9.354;2022-10-01T03:45:06;21.50;48.90
1329;DHT22;658;48.820;9.354;2022-10-01T03:49:07;21.50;48.90
1329;DHT22;658;48.820;9.354;2022-10-01T03:53:07;21.50;49.00
1329;DHT22;658;48.820;9.354;2022-10-01T03:57:08;21.50;49.00
1329;DHT22;658;48.820;9.354;2022-10-01T04:01:09;21.40;48.90
1329;DHT22;658;48.820;9.354;2022-10-01T04:05:09;21.40;49.00
1329;DHT22;658;48.820;9.354;2022-10-01T04:09:10;21.40;49.00
1329;DHT22;658;48.820;9.354;2022-10-01T04:13:10;21.40;49.00
1329;DHT22;658;48.820;9.354;2022-10-01T04:17:11;21.40;49.00
1329;DHT22;658;48.820;9.354;2022-10-01T04:21:11;21.40;49.00
1329;DHT22;658;48.820;9.354;2022-10-01T04:25:13;21.40;49.00
1329;DHT22;658;48.820;9.354;2022-10-01T04:29:13;21.40;49.10
1329;DHT22;658;48.820;9.354;2022-10-01T04:33:15;21.40;49.00
1329;DHT22;658;48.820;9.354;2022-10-01T04:37:16;21.40;49.10
1329;DHT22;658;48.820;9.354;2022-10-01T04:41:16;21.40;49.10
1329;DHT22;658;48.820;9.354;2022-10-01T04:45:17;21.30;49.00
1329;DHT22;658;48.820;9.354;2022-10-01T04:49:18;21.30;48.90
1329;DHT22;658;48.820;9.354;2022-10-01T04:53:19;21.30;49.00
1329;DHT22;658;48.820;9.354;2022-10-01T04:57:19;21.30;49.00
1329;DHT22;658;48.820;9.354;2022-10-01T05:01:21;21.30;49.00
1329;DHT22;658;48.820;9.354;2022-10-01T05:05:23;21.30;49.00
1329;DHT22;658;48.820;9.354;2022-10-01T05:09:24;21.30;49.00
1329;DHT22;658;48.820;9.354;2022-10-01T05:13:24;21.30;49.00
1329;DHT22;658;48.820;9.354;2022-10-01T05:17:29;21.30;49.10
1329;DHT22;658;48.820;9.354;2022-10-01T05:21:32;21.30;49.10
1329;DHT22;658;48.820;9.354;2022-10-01T05:25:32;21.30;49.10
1329;DHT22;658;48.820;9.354;2022-10-01T05:29:33;21.30;49.00
1329;DHT22;658;48.820;9.354;2022-10-01T05:33:34;21.30;49.00
1329;DHT22;658;48.820;9.354;2022-10-01T05:37:35;21.30;49.10
1329;DHT22;658;48.820;9.354;2022-10-01T05:41:35;21.30;49.00
1329;DHT22;658;48.820;9.354;2022-10-01T05:45:36;21.20;49.00
1329;DHT22;658;48.820;9.354;2022-10-01T05:49:37;21.20;49.50
1329;DHT22;658;48.820;9.354;2022-10-01T05:53:42;21.20;49.00
1329;DHT22;658;48.820;9.354;2022-10-01T05:57:43;21.20;49.00
1329;DHT22;658;48.820;9.354;2022-10-01T06:01:43;21.20;49.00
1329;DHT22;658;48.820;9.354;2022-10-01T06:05:44;21.20;49.00
1329;DHT22;658;48.820;9.354;2022-10-01T06:09:45;21.20;49.10
1329;DHT22;658;48.820;9.354;2022-10-01T06:13:46;21.20;49.00
1329;DHT22;658;48.820;9.354;2022-10-01T06:17:46;21.20;49.00
1329;DHT22;658;48.820;9.354;2022-10-01T06:21:47;21.20;48.90
1329;DHT22;658;48.820;9.354;2022-10-01T06:25:47;21.20;48.90
1329;DHT22;658;48.820;9.354;2022-10-01T06:29:48;21.20;48.90
1329;DHT22;658;48.820;9.354;2022-10-01T06:33:49;21.10;48.80
1329;DHT22;658;48.820;9.354;2022-10-01T06:37:49;21.10;48.80
1329;DHT22;658;48.820;9.354;2022-10-01T06:41:50;21.20;48.90
1329;DHT22;658;48.820;9.354;2022-10-01T06:45:51;21.10;48.80
1329;DHT22;658;48.820;9.354;2022-10-01T06:49:52;21.10;48.80
1329;DHT22;658;48.820;9.354;2022-10-01T06:53:52;21.10;48.70
1329;DHT22;658;48.820;9.354;2022-10-01T06:58:01;21.20;49.00
1329;DHT22;658;48.820;9.354;2022-10-01T07:02:03;21.20;48.80
1329;DHT22;658;48.820;9.354;2022-10-01T07:06:04;21.20;48.90
1329;DHT22;658;48.820;9.354;2022-10-01T07:10:08;21.20;48.90
1329;DHT22;658;48.820;9.354;2022-10-01T07:14:09;21.20;49.00
1329;DHT22;658;48.820;9.354;2022-10-01T07:18:10;21.20;49.00
1329;DHT22;658;48.820;9.354;2022-10-01T07:22:11;21.20;48.90
1329;DHT22;658;48.820;9.354;2022-10-01T07:26:12;21.10;49.00
1329;DHT22;658;48.820;9.354;2022-10-01T07:30:12;21.10;49.10
1329;DHT22;658;48.820;9.354;2022-10-01T07:34:13;21.10;49.00
1329;DHT22;658;48.820;9.354;2022-10-01T07:38:14;21.10;49.10
1329;DHT22;658;48.820;9.354;2022-10-01T07:42:15;21.10;49.10
1329;DHT22;658;48.820;9.354;2022-10-01T07:46:15;21.10;49.20
1329;DHT22;658;48.820;9.354;2022-10-01T07:50:16;21.10;49.20
1329;DHT22;658;48.820;9.354;2022-10-01T07:54:16;21.10;49.30
1329;DHT22;658;48.820;9.354;2022-10-01T07:58:18;21.10;49.30
1329;DHT22;658;48.820;9.354;2022-10-01T08:02:23;21.10;49.30
1329;DHT22;658;48.820;9.354;2022-10-01T08:06:23;21.10;49.30
1329;DHT22;658;48.820;9.354;2022-10-01T08:10:24;21.10;49.30
1329;DHT22;658;48.820;9.354;2022-10-01T08:14:25;21.00;49.40
1329;DHT22;658;48.820;9.354;2022-10-01T08:18:25;21.10;49.40
1329;DHT22;658;48.820;9.354;2022-10-01T08:22:26;21.10;49.60
1329;DHT22;658;48.820;9.354;2022-10-01T08:26:27;21.10;49.70
1329;DHT22;658;48.820;9.354;2022-10-01T08:30:28;21.20;50.00
1329;DHT22;658;48.820;9.354;2022-10-01T08:34:29;21.20;49.80
1329;DHT22;658;48.820;9.354;2022-10-01T08:38:30;21.20;49.90
1329;DHT22;658;48.820;9.354;2022-10-01T08:42:50;21.30;49.90
1329;DHT22;658;48.820;9.354;2022-10-01T08:46:56;21.20;49.90
1329;DHT22;658;48.820;9.354;2022-10-01T08:55:27;21.20;49.80
1329;DHT22;658;48.820;9.354;2022-10-01T09:03:40;21.20;49.90
1329;DHT22;658;48.820;9.354;2022-10-01T09:20:19;21.20;49.90
1329;DHT22;658;48.820;9.354;2022-10-01T09:24:39;21.20;49.90
1329;DHT22;658;48.820;9.354;2022-10-01T09:28:42;21.10;49.80
1329;DHT22;658;48.820;9.354;2022-10-01T09:33:09;21.20;49.80
1329;DHT22;658;48.820;9.354;2022-10-01T09:41:28;21.10;49.70
1329;DHT22;658;48.820;9.354;2022-10-01T09:45:30;21.10;49.80
1329;DHT22;658;48.820;9.354;2022-10-01T09:49:35;21.10;49.80
1329;DHT22;658;48.820;9.354;2022-10-01T09:58:12;21.10;49.90
1329;DHT22;658;48.820;9.354;2022-10-01T10:02:22;21.10;49.70
1329;DHT22;658;48.820;9.354;2022-10-01T10:06:27;21.10;49.70
1329;DHT22;658;48.820;9.354;2022-10-01T10:10:33;21.10;49.80
1329;DHT22;658;48.820;9.354;2022-10-01T10:14:38;21.10;49.70
1329;DHT22;658;48.820;9.354;2022-10-01T10:18:41;21.00;49.60
1329;DHT22;658;48.820;9.354;2022-10-01T10:22:47;21.10;49.80
1329;DHT22;658;48.820;9.354;2022-10-01T10:26:54;21.10;49.70
1329;DHT22;658;48.820;9.354;2022-10-01T10:30:55;21.00;49.70
1329;DHT22;658;48.820;9.354;2022-10-01T10:35:01;21.00;49.80
1329;DHT22;658;48.820;9.354;2022-10-01T10:39:09;21.00;49.80
1329;DHT22;658;48.820;9.354;2022-10-01T10:43:22;21.00;49.90
1329;DHT22;658;48.820;9.354;2022-10-01T10:47:24;21.00;50.50
1329;DHT22;658;48.820;9.354;2022-10-01T10:51:27;21.10;49.70
1329;DHT22;658;48.820;9.354;2022-10-01T10:55:29;21.10;49.50
1329;DHT22;658;48.820;9.354;2022-10-01T10:59:32;21.10;49.50
1329;DHT22;658;48.820;9.354;2022-10-01T11:03:35;21.20;49.60
1329;DHT22;658;48.820;9.354;2022-10-01T11:07:37;21.10;49.50
1329;DHT22;658;48.820;9.354;2022-10-01T11:12:04;21.10;49.60
1329;DHT22;658;48.820;9.354;2022-10-01T11:25:27;21.10;49.60
1329;DHT22;658;48.820;9.354;2022-10-01T11:34:20;21.10;49.80
1329;DHT22;658;48.820;9.354;2022-10-01T11:42:42;21.00;49.90
1329;DHT22;658;48.820;9.354;2022-10-01T11:46:57;21.00;49.90
1329;DHT22;658;48.820;9.354;2022-10-01T11:51:04;21.00;49.90
1329;DHT22;658;48.820;9.354;2022-10-01T11:55:22;21.00;49.90
1329;DHT22;658;48.820;9.354;2022-10-01T11:59:58;21.00;50.00
1329;DHT22;658;48.820;9.354;2022-10-01T12:08:22;20.90;50.00
1329;DHT22;658;48.820;9.354;2022-10-01T12:12:29;20.90;50.00
1329;DHT22;658;48.820;9.354;2022-10-01T12:20:42;20.90;50.00
1329;DHT22;658;48.820;9.354;2022-10-01T12:24:44;20.90;50.00
1329;DHT22;658;48.820;9.354;2022-10-01T12:29:06;21.00;50.00
1329;DHT22;658;48.820;9.354;2022-10-01T12:47:00;21.00;49.80
1329;DHT22;658;48.820;9.354;2022-10-01T12:59:53;21.10;49.60
1329;DHT22;658;48.820;9.354;2022-10-01T13:09:07;21.20;49.40
1329;DHT22;658;48.820;9.354;2022-10-01T13:17:41;21.60;49.00
1329;DHT22;658;48.820;9.354;2022-10-01T13:21:55;21.80;48.10
1329;DHT22;658;48.820;9.354;2022-10-01T13:26:11;22.20;47.30
1329;DHT22;658;48.820;9.354;2022-10-01T13:34:42;21.90;48.40
1329;DHT22;658;48.820;9.354;2022-10-01T13:38:44;22.00;48.20
1329;DHT22;658;48.820;9.354;2022-10-01T13:42:47;22.40;47.80
1329;DHT22;658;48.820;9.354;2022-10-01T13:46:56;22.80;46.70
1329;DHT22;658;48.820;9.354;2022-10-01T13:51:07;23.00;45.90
1329;DHT22;658;48.820;9.354;2022-10-01T13:55:24;24.10;44.00
1329;DHT22;658;48.820;9.354;2022-10-01T13:59:31;23.30;45.60
1329;DHT22;658;48.820;9.354;2022-10-01T14:03:54;22.90;46.70
1329;DHT22;658;48.820;9.354;2022-10-01T14:12:31;22.40;47.60
1329;DHT22;658;48.820;9.354;2022-10-01T14:16:53;22.30;47.80
1329;DHT22;658;48.820;9.354;2022-10-01T14:38:12;21.90;48.70
1329;DHT22;658;48.820;9.354;2022-10-01T14:42:16;21.80;48.70
1329;DHT22;658;48.820;9.354;2022-10-01T14:46:17;21.80;48.90
1329;DHT22;658;48.820;9.354;2022-10-01T14:50:19;21.80;49.00
1329;DHT22;658;48.820;9.354;2022-10-01T14:54:20;21.70;49.10
1329;DHT22;658;48.820;9.354;2022-10-01T14:58:29;21.70;49.10
1329;DHT22;658;48.820;9.354;2022-10-01T15:02:30;21.70;49.20
1329;DHT22;658;48.820;9.354;2022-10-01T15:06:40;21.70;49.10
1329;DHT22;658;48.820;9.354;2022-10-01T15:10:52;21.80;49.10
1329;DHT22;658;48.820;9.354;2022-10-01T15:14:55;21.70;49.10
1329;DHT22;658;48.820;9.354;2022-10-01T15:19:04;21.70;49.20
1329;DHT22;658;48.820;9.354;2022-10-01T15:23:06;21.70;49.30
1329;DHT22;658;48.820;9.354;2022-10-01T15:27:08;21.70;49.30
1329;DHT22;658;48.820;9.354;2022-10-01T15:31:09;21.70;49.10
1329;DHT22;658;48.820;9.354;2022-10-01T15:35:12;21.70;49.20
1329;DHT22;658;48.820;9.354;2022-10-01T15:39:33;21.70;49.20
1329;DHT22;658;48.820;9.354;2022-10-01T15:43:36;21.70;49.20
1329;DHT22;658;48.820;9.354;2022-10-01T15:48:03;21.60;49.40
1329;DHT22;658;48.820;9.354;2022-10-01T15:52:04;21.60;49.50
1329;DHT22;658;48.820;9.354;2022-10-01T15:56:24;21.50;49.40
1329;DHT22;658;48.820;9.354;2022-10-01T16:00:27;21.50;49.50
1329;DHT22;658;48.820;9.354;2022-10-01T16:04:28;21.50;49.50
1329;DHT22;658;48.820;9.354;2022-10-01T16:08:38;21.50;49.80
1329;DHT22;658;48.820;9.354;2022-10-01T16:12:47;21.40;49.50
1329;DHT22;658;48.820;9.354;2022-10-01T16:16:47;21.40;49.60
1329;DHT22;658;48.820;9.354;2022-10-01T16:20:55;21.40;49.60
1329;DHT22;658;48.820;9.354;2022-10-01T16:25:02;21.40;49.70
1329;DHT22;658;48.820;9.354;2022-10-01T16:33:12;21.30;49.80
1329;DHT22;658;48.820;9.354;2022-10-01T16:37:13;21.30;49.90
1329;DHT22;658;48.820;9.354;2022-10-01T16:41:18;21.30;50.10
1329;DHT22;658;48.820;9.354;2022-10-01T16:45:23;21.20;50.00
1329;DHT22;658;48.820;9.354;2022-10-01T16:49:25;21.20;50.00
1329;DHT22;658;48.820;9.354;2022-10-01T16:53:25;21.20;50.00
1329;DHT22;658;48.820;9.354;2022-10-01T16:57:26;21.20;50.00
1329;DHT22;658;48.820;9.354;2022-10-01T17:01:28;21.10;50.00
1329;DHT22;658;48.820;9.354;2022-10-01T17:05:31;21.10;50.00
1329;DHT22;658;48.820;9.354;2022-10-01T17:09:32;21.10;50.00
1329;DHT22;658;48.820;9.354;2022-10-01T17:13:33;21.10;50.00
1329;DHT22;658;48.820;9.354;2022-10-01T17:17:33;21.10;50.10
1329;DHT22;658;48.820;9.354;2022-10-01T17:21:35;21.00;50.00
1329;DHT22;658;48.820;9.354;2022-10-01T17:25:36;21.00;50.00
1329;DHT22;658;48.820;9.354;2022-10-01T17:29:38;21.00;50.10
1329;DHT22;658;48.820;9.354;2022-10-01T17:33:38;21.00;50.20
1329;DHT22;658;48.820;9.354;2022-10-01T17:37:40;21.00;50.30
1329;DHT22;658;48.820;9.354;2022-10-01T17:41:40;21.00;50.40
1329;DHT22;658;48.820;9.354;2022-10-01T17:45:42;21.00;50.30
1329;DHT22;658;48.820;9.354;2022-10-01T17:49:43;21.00;50.20
1329;DHT22;658;48.820;9.354;2022-10-01T17:53:44;20.90;50.20
1329;DHT22;658;48.820;9.354;2022-10-01T17:57:44;20.90;50.30
1329;DHT22;658;48.820;9.354;2022-10-01T18:01:45;20.90;50.40
1329;DHT22;658;48.820;9.354;2022-10-01T18:05:46;20.90;50.30
1329;DHT22;658;48.820;9.354;2022-10-01T18:09:46;20.90;50.30
1329;DHT22;658;48.820;9.354;2022-10-01T18:13:49;20.90;50.40
1329;DHT22;658;48.820;9.354;2022-10-01T18:17:49;20.90;50.50
1329;DHT22;658;48.820;9.354;2022-10-01T18:21:53;20.90;50.40
1329;DHT22;658;48.820;9.354;2022-10-01T18:25:54;20.90;50.50
1329;DHT22;658;48.820;9.354;2022-10-01T18:29:54;20.80;50.40
1329;DHT22;658;48.820;9.354;2022-10-01T18:33:58;20.80;50.40
1329;DHT22;658;48.820;9.354;2022-10-01T18:42:32;20.80;50.50
1329;DHT22;658;48.820;9.354;2022-10-01T18:50:53;20.80;50.50
1329;DHT22;658;48.820;9.354;2022-10-01T19:04:01;20.80;50.60
1329;DHT22;658;48.820;9.354;2022-10-01T19:12:18;20.70;50.70
1329;DHT22;658;48.820;9.354;2022-10-01T19:33:47;20.70;50.80
1329;DHT22;658;48.820;9.354;2022-10-01T19:37:54;20.70;50.80
1329;DHT22;658;48.820;9.354;2022-10-01T19:42:28;20.70;50.90
1329;DHT22;658;48.820;9.354;2022-10-01T19:46:36;20.70;50.90
1329;DHT22;658;48.820;9.354;2022-10-01T19:50:42;20.70;50.90
1329;DHT22;658;48.820;9.354;2022-10-01T19:54:50;20.70;50.80
1329;DHT22;658;48.820;9.354;2022-10-01T19:58:51;20.70;51.20
1329;DHT22;658;48.820;9.354;2022-10-01T20:03:10;20.70;50.70
1329;DHT22;658;48.820;9.354;2022-10-01T20:07:46;20.70;50.80
1329;DHT22;658;48.820;9.354;2022-10-01T20:25:06;20.70;51.00
1329;DHT22;658;48.820;9.354;2022-10-01T20:29:18;20.70;50.90
1329;DHT22;658;48.820;9.354;2022-10-01T20:33:48;20.70;50.90
1329;DHT22;658;48.820;9.354;2022-10-01T20:38:20;20.70;51.20
1329;DHT22;658;48.820;9.354;2022-10-01T20:42:36;20.70;51.00
1329;DHT22;658;48.820;9.354;2022-10-01T20:46:42;20.70;51.00
1329;DHT22;658;48.820;9.354;2022-10-01T20:50:48;20.70;51.60
1329;DHT22;658;48.820;9.354;2022-10-01T20:54:52;20.70;51.00
1329;DHT22;658;48.820;9.354;2022-10-01T20:59:01;20.70;51.00
1329;DHT22;658;48.820;9.354;2022-10-01T21:08:25;20.70;51.10
1329;DHT22;658;48.820;9.354;2022-10-01T21:12:00;20.60;51.00
1329;DHT22;658;48.820;9.354;2022-10-01T21:20:43;20.70;51.10
1329;DHT22;658;48.820;9.354;2022-10-01T21:29:38;20.70;51.20
1329;DHT22;658;48.820;9.354;2022-10-01T21:34:43;20.70;51.30
1329;DHT22;658;48.820;9.354;2022-10-01T21:38:30;20.70;51.30
1329;DHT22;658;48.820;9.354;2022-10-01T21:43:12;20.60;51.20
1329;DHT22;658;48.820;9.354;2022-10-01T21:47:39;20.70;51.50
1329;DHT22;658;48.820;9.354;2022-10-01T22:04:34;20.60;51.30
1329;DHT22;658;48.820;9.354;2022-10-01T22:13:28;20.60;51.40
1329;DHT22;658;48.820;9.354;2022-10-01T22:17:33;20.60;51.40
1329;DHT22;658;48.820;9.354;2022-10-01T22:21:41;20.60;51.50
1329;DHT22;658;48.820;9.354;2022-10-01T22:25:50;20.60;51.50
1329;DHT22;658;48.820;9.354;2022-10-01T22:29:58;20.60;51.50
1329;DHT22;658;48.820;9.354;2022-10-01T22:34:11;20.60;51.60
1329;DHT22;658;48.820;9.354;2022-10-01T22:38:19;20.60;51.70
1329;DHT22;658;48.820;9.354;2022-10-01T22:42:25;20.60;51.70
1329;DHT22;658;48.820;9.354;2022-10-01T22:51:07;20.50;51.70
1329;DHT22;658;48.820;9.354;2022-10-01T22:59:50;20.50;51.80
1329;DHT22;658;48.820;9.354;2022-10-01T23:04:19;20.60;51.80
1329;DHT22;658;48.820;9.354;2022-10-01T23:13:03;20.60;52.10
1329;DHT22;658;48.820;9.354;2022-10-01T23:17:39;20.60;51.80
1329;DHT22;658;48.820;9.354;2022-10-01T23:35:18;20.60;52.10
1329;DHT22;658;48.820;9.354;2022-10-01T23:44:13;20.60;52.10
1329;DHT22;658;48.820;9.354;2022-10-01T23:48:33;20.60;52.10
1329;DHT22;658;48.820;9.354;2022-10-01T23:52:41;20.50;52.00
